createdAt,value
2017-09-27T00:00:55.461Z,973.01
2017-09-27T00:01:55.454Z,973.05
2017-09-27T00:02:55.450Z,973.04
2017-09-27T00:03:55.444Z,973.04
2017-09-27T00:04:55.439Z,973.05
2017-09-27T00:05:55.435Z,973.03
2017-09-27T00:06:55.430Z,973.02
2017-09-27T00:07:55.525Z,973.03
2017-09-27T00:08:55.420Z,972.99
2017-09-27T00:09:55.566Z,973.04
2017-09-27T00:10:55.411Z,973.01
2017-09-27T00:11:55.405Z,973
2017-09-27T00:12:55.499Z,972.97
2017-09-27T00:13:55.395Z,972.97
2017-09-27T00:14:55.389Z,972.97
2017-09-27T00:15:55.384Z,972.96
2017-09-27T00:16:55.479Z,973
2017-09-27T00:17:55.374Z,972.93
2017-09-27T00:18:55.397Z,972.94
2017-09-27T00:19:55.364Z,972.93
2017-09-27T00:20:55.359Z,972.96
2017-09-27T00:21:55.355Z,972.94
2017-09-27T00:22:55.349Z,972.91
2017-09-27T00:23:55.344Z,972.92
2017-09-27T00:24:55.439Z,972.9
2017-09-27T00:25:55.335Z,972.92
2017-09-27T00:26:55.328Z,972.92
2017-09-27T00:27:55.425Z,972.94
2017-09-27T00:28:55.318Z,972.94
2017-09-27T00:29:55.312Z,972.96
2017-09-27T00:30:55.308Z,972.92
2017-09-27T00:31:55.402Z,972.97
2017-09-27T00:32:55.399Z,972.93
2017-09-27T00:33:55.291Z,972.96
2017-09-27T00:34:55.287Z,972.96
2017-09-27T00:35:55.282Z,972.97
2017-09-27T00:36:55.278Z,972.95
2017-09-27T00:37:55.272Z,972.98
2017-09-27T00:38:55.268Z,973.03
2017-09-27T00:39:55.261Z,972.99
2017-09-27T00:40:55.255Z,972.99
2017-09-27T00:41:55.352Z,973
2017-09-27T00:42:55.246Z,972.99
2017-09-27T00:43:55.342Z,973.01
2017-09-27T00:44:55.237Z,973
2017-09-27T00:45:55.232Z,973.01
2017-09-27T00:46:55.227Z,973.02
2017-09-27T00:47:55.221Z,972.98
2017-09-27T00:48:55.315Z,973
2017-09-27T00:49:55.222Z,972.99
2017-09-27T00:50:55.206Z,973
2017-09-27T00:51:55.200Z,973
2017-09-27T00:52:55.195Z,972.99
2017-09-27T00:53:55.189Z,973.03
2017-09-27T00:54:55.185Z,973.01
2017-09-27T00:55:55.180Z,973.02
2017-09-27T00:56:55.175Z,973.04
2017-09-27T00:57:55.169Z,973.05
2017-09-27T00:58:55.166Z,973.04
2017-09-27T00:59:55.159Z,973.03
2017-09-27T01:00:55.155Z,973.03
2017-09-27T01:01:55.149Z,973.02
2017-09-27T01:02:55.144Z,973.07
2017-09-27T01:03:55.140Z,973.08
2017-09-27T01:04:55.135Z,973.08
2017-09-27T01:05:55.129Z,973.08
2017-09-27T01:06:55.122Z,973.11
2017-09-27T01:07:55.268Z,973.08
2017-09-27T01:08:55.115Z,973.09
2017-09-27T01:09:55.107Z,973.08
2017-09-27T01:10:55.103Z,973.08
2017-09-27T01:11:55.098Z,973.11
2017-09-27T01:12:55.094Z,973.09
2017-09-27T01:13:55.088Z,973.08
2017-09-27T01:14:55.182Z,973.09
2017-09-27T01:15:55.076Z,973.12
2017-09-27T01:16:55.072Z,973.08
2017-09-27T01:17:55.065Z,973.1
2017-09-27T01:18:55.062Z,973.09
2017-09-27T01:19:55.157Z,973.07
2017-09-27T01:20:55.052Z,973.06
2017-09-27T01:21:55.045Z,973.02
2017-09-27T01:22:55.042Z,973.02
2017-09-27T01:23:55.036Z,973.02
2017-09-27T01:24:55.030Z,973.02
2017-09-27T01:25:55.126Z,973.02
2017-09-27T01:26:55.021Z,972.96
2017-09-27T01:27:55.016Z,972.99
2017-09-27T01:28:55.110Z,972.96
2017-09-27T01:29:55.005Z,972.97
2017-09-27T01:30:55.001Z,972.95
2017-09-27T01:31:54.995Z,972.97
2017-09-27T01:32:54.989Z,972.94
2017-09-27T01:33:54.985Z,972.97
2017-09-27T01:34:54.980Z,972.98
2017-09-27T01:35:54.973Z,972.96
2017-09-27T01:36:55.069Z,972.97
2017-09-27T01:37:54.964Z,972.93
2017-09-27T01:38:54.960Z,972.96
2017-09-27T01:39:54.953Z,972.9
2017-09-27T01:40:54.949Z,972.88
2017-09-27T01:41:54.943Z,972.91
2017-09-27T01:42:54.937Z,972.89
2017-09-27T01:43:54.933Z,972.88
2017-09-27T01:44:54.928Z,972.88
2017-09-27T01:45:54.926Z,972.88
2017-09-27T01:46:55.018Z,972.87
2017-09-27T01:47:54.917Z,972.9
2017-09-27T01:48:54.908Z,972.85
2017-09-27T01:49:54.904Z,972.92
2017-09-27T01:50:54.897Z,972.9
2017-09-27T01:51:54.992Z,972.88
2017-09-27T01:52:54.886Z,972.9
2017-09-27T01:53:54.881Z,972.91
2017-09-27T01:54:54.877Z,972.92
2017-09-27T01:55:54.872Z,972.88
2017-09-27T01:56:54.867Z,972.9
2017-09-27T01:57:54.860Z,972.88
2017-09-27T01:58:54.855Z,972.93
2017-09-27T01:59:54.950Z,972.89
2017-09-27T02:00:54.846Z,972.91
2017-09-27T02:01:54.841Z,972.95
2017-09-27T02:02:54.834Z,972.93
2017-09-27T02:03:54.830Z,972.97
2017-09-27T02:04:54.825Z,972.94
2017-09-27T02:05:54.820Z,972.92
2017-09-27T02:06:54.819Z,972.93
2017-09-27T02:07:54.810Z,972.93
2017-09-27T02:08:54.804Z,972.94
2017-09-27T02:09:54.799Z,972.92
2017-09-27T02:10:54.893Z,972.92
2017-09-27T02:11:54.789Z,972.87
2017-09-27T02:12:54.784Z,972.88
2017-09-27T02:13:54.779Z,972.88
2017-09-27T02:14:54.773Z,972.9
2017-09-27T02:15:54.768Z,972.89
2017-09-27T02:16:54.913Z,972.92
2017-09-27T02:17:54.758Z,972.88
2017-09-27T02:18:54.753Z,972.9
2017-09-27T02:19:54.745Z,972.9
2017-09-27T02:20:54.775Z,972.91
2017-09-27T02:21:54.741Z,972.92
2017-09-27T02:22:54.731Z,972.9
2017-09-27T02:23:54.732Z,972.91
2017-09-27T02:24:54.722Z,972.88
2017-09-27T02:25:54.715Z,972.89
2017-09-27T02:26:54.710Z,972.87
2017-09-27T02:27:54.705Z,972.83
2017-09-27T02:28:54.701Z,972.86
2017-09-27T02:29:54.695Z,972.87
2017-09-27T02:30:54.690Z,972.84
2017-09-27T02:31:54.683Z,972.84
2017-09-27T02:32:54.780Z,972.79
2017-09-27T02:33:54.675Z,972.77
2017-09-27T02:34:54.669Z,972.79
2017-09-27T02:35:54.664Z,972.74
2017-09-27T02:36:54.662Z,972.77
2017-09-27T02:37:54.654Z,972.73
2017-09-27T02:38:54.648Z,972.77
2017-09-27T02:39:54.644Z,972.76
2017-09-27T02:40:54.637Z,972.75
2017-09-27T02:41:54.633Z,972.75
2017-09-27T02:42:54.627Z,972.78
2017-09-27T02:43:54.772Z,972.8
2017-09-27T02:44:54.618Z,972.78
2017-09-27T02:45:54.611Z,972.81
2017-09-27T02:46:54.607Z,972.81
2017-09-27T02:47:54.603Z,972.81
2017-09-27T02:48:54.595Z,972.79
2017-09-27T02:49:54.591Z,972.8
2017-09-27T02:50:54.586Z,972.81
2017-09-27T02:51:54.581Z,972.81
2017-09-27T02:52:54.576Z,972.78
2017-09-27T02:53:54.603Z,972.77
2017-09-27T02:54:54.565Z,972.77
2017-09-27T02:55:54.561Z,972.72
2017-09-27T02:56:54.554Z,972.73
2017-09-27T02:57:54.549Z,972.75
2017-09-27T02:58:54.544Z,972.71
2017-09-27T02:59:54.538Z,972.73
2017-09-27T03:00:54.684Z,972.73
2017-09-27T03:01:54.527Z,972.71
2017-09-27T03:02:54.523Z,972.7
2017-09-27T03:03:54.517Z,972.69
2017-09-27T03:04:54.514Z,972.67
2017-09-27T03:05:54.512Z,972.62
2017-09-27T03:06:54.503Z,972.62
2017-09-27T03:07:54.499Z,972.64
2017-09-27T03:08:54.492Z,972.65
2017-09-27T03:09:54.587Z,972.64
2017-09-27T03:10:54.479Z,972.62
2017-09-27T03:11:54.476Z,972.63
2017-09-27T03:12:54.471Z,972.61
2017-09-27T03:13:54.466Z,972.6
2017-09-27T03:14:54.609Z,972.62
2017-09-27T03:15:54.455Z,972.62
2017-09-27T03:16:54.450Z,972.62
2017-09-27T03:17:54.546Z,972.63
2017-09-27T03:18:54.541Z,972.65
2017-09-27T03:19:54.534Z,972.67
2017-09-27T03:20:54.430Z,972.66
2017-09-27T03:21:54.424Z,972.64
2017-09-27T03:22:54.420Z,972.64
2017-09-27T03:23:54.415Z,972.67
2017-09-27T03:24:54.409Z,972.66
2017-09-27T03:25:54.408Z,972.66
2017-09-27T03:26:54.402Z,972.66
2017-09-27T03:27:54.393Z,972.69
2017-09-27T03:28:54.387Z,972.67
2017-09-27T03:29:54.383Z,972.67
2017-09-27T03:30:54.380Z,972.69
2017-09-27T03:31:54.372Z,972.66
2017-09-27T03:32:54.367Z,972.66
2017-09-27T03:33:54.362Z,972.69
2017-09-27T03:34:54.358Z,972.7
2017-09-27T03:35:54.352Z,972.74
2017-09-27T03:36:54.346Z,972.73
2017-09-27T03:37:54.342Z,972.76
2017-09-27T03:38:54.336Z,972.72
2017-09-27T03:39:54.330Z,972.79
2017-09-27T03:40:54.325Z,972.74
2017-09-27T03:41:54.420Z,972.75
2017-09-27T03:42:54.315Z,972.75
2017-09-27T03:43:54.309Z,972.75
2017-09-27T03:44:54.304Z,972.77
2017-09-27T03:45:54.298Z,972.8
2017-09-27T03:46:54.294Z,972.75
2017-09-27T03:47:54.305Z,972.79
2017-09-27T03:48:54.283Z,972.78
2017-09-27T03:49:54.279Z,972.8
2017-09-27T03:50:54.271Z,972.81
2017-09-27T03:51:54.268Z,972.84
2017-09-27T03:52:54.263Z,972.85
2017-09-27T03:53:54.257Z,972.83
2017-09-27T03:54:54.351Z,972.8
2017-09-27T03:55:54.247Z,972.81
2017-09-27T03:56:54.242Z,972.83
2017-09-27T03:57:54.237Z,972.8
2017-09-27T03:58:54.229Z,972.8
2017-09-27T03:59:54.243Z,972.8
2017-09-27T04:00:54.220Z,972.82
2017-09-27T04:01:54.365Z,972.83
2017-09-27T04:02:54.210Z,972.83
2017-09-27T04:03:54.204Z,972.81
2017-09-27T04:04:54.199Z,972.82
2017-09-27T04:05:54.193Z,972.83
2017-09-27T04:06:54.289Z,972.82
2017-09-27T04:07:54.182Z,972.82
2017-09-27T04:08:54.179Z,972.86
2017-09-27T04:09:54.173Z,972.85
2017-09-27T04:10:54.267Z,972.86
2017-09-27T04:11:54.162Z,972.84
2017-09-27T04:12:54.156Z,972.87
2017-09-27T04:13:54.154Z,972.81
2017-09-27T04:14:54.147Z,972.82
2017-09-27T04:15:54.141Z,972.88
2017-09-27T04:16:54.135Z,972.84
2017-09-27T04:17:54.131Z,972.86
2017-09-27T04:18:54.124Z,972.85
2017-09-27T04:19:54.126Z,972.85
2017-09-27T04:20:54.114Z,972.87
2017-09-27T04:21:54.110Z,972.91
2017-09-27T04:22:54.204Z,972.89
2017-09-27T04:23:54.104Z,972.87
2017-09-27T04:24:54.093Z,972.92
2017-09-27T04:25:54.088Z,972.89
2017-09-27T04:26:54.184Z,972.91
2017-09-27T04:27:54.077Z,972.94
2017-09-27T04:28:54.072Z,972.93
2017-09-27T04:29:54.067Z,972.91
2017-09-27T04:30:54.063Z,972.94
2017-09-27T04:31:54.057Z,972.93
2017-09-27T04:32:54.052Z,972.94
2017-09-27T04:33:54.046Z,972.95
2017-09-27T04:34:54.040Z,972.96
2017-09-27T04:35:54.035Z,972.99
2017-09-27T04:36:54.030Z,973
2017-09-27T04:37:54.025Z,973.02
2017-09-27T04:38:54.020Z,973.04
2017-09-27T04:39:54.015Z,973.07
2017-09-27T04:40:54.110Z,973.07
2017-09-27T04:41:54.005Z,973.07
2017-09-27T04:42:54.099Z,973.06
2017-09-27T04:43:53.994Z,973.08
2017-09-27T04:44:53.992Z,973.1
2017-09-27T04:45:53.982Z,973.09
2017-09-27T04:46:53.977Z,973.08
2017-09-27T04:47:53.972Z,973.12
2017-09-27T04:48:54.119Z,973.12
2017-09-27T04:49:53.960Z,973.11
2017-09-27T04:50:53.957Z,973.14
2017-09-27T04:51:54.051Z,973.09
2017-09-27T04:52:53.949Z,973.11
2017-09-27T04:53:53.941Z,973.08
2017-09-27T04:54:54.086Z,973.1
2017-09-27T04:55:53.931Z,973.09
2017-09-27T04:56:53.926Z,973.11
2017-09-27T04:57:53.919Z,973.1
2017-09-27T04:58:54.014Z,973.13
2017-09-27T04:59:53.910Z,973.16
2017-09-27T05:00:53.903Z,973.17
2017-09-27T05:01:53.900Z,973.16
2017-09-27T05:02:53.893Z,973.13
2017-09-27T05:03:53.888Z,973.16
2017-09-27T05:04:53.882Z,973.19
2017-09-27T05:05:53.878Z,973.19
2017-09-27T05:06:53.873Z,973.2
2017-09-27T05:07:54.017Z,973.19
2017-09-27T05:08:53.861Z,973.24
2017-09-27T05:09:53.957Z,973.2
2017-09-27T05:10:53.853Z,973.24
2017-09-27T05:11:53.845Z,973.26
2017-09-27T05:12:53.940Z,973.23
2017-09-27T05:13:53.836Z,973.23
2017-09-27T05:14:53.830Z,973.26
2017-09-27T05:15:53.825Z,973.27
2017-09-27T05:16:53.820Z,973.26
2017-09-27T05:17:53.916Z,973.26
2017-09-27T05:18:53.808Z,973.26
2017-09-27T05:19:53.804Z,973.28
2017-09-27T05:20:53.798Z,973.27
2017-09-27T05:21:53.794Z,973.28
2017-09-27T05:22:53.888Z,973.26
2017-09-27T05:23:53.782Z,973.28
2017-09-27T05:24:53.878Z,973.27
2017-09-27T05:25:53.872Z,973.29
2017-09-27T05:26:53.767Z,973.32
2017-09-27T05:27:53.762Z,973.32
2017-09-27T05:28:53.756Z,973.26
2017-09-27T05:29:53.852Z,973.3
2017-09-27T05:30:53.746Z,973.32
2017-09-27T05:31:53.740Z,973.32
2017-09-27T05:32:53.735Z,973.3
2017-09-27T05:33:53.730Z,973.33
2017-09-27T05:34:53.725Z,973.33
2017-09-27T05:35:53.719Z,973.33
2017-09-27T05:36:53.863Z,973.31
2017-09-27T05:37:53.708Z,973.31
2017-09-27T05:38:53.703Z,973.33
2017-09-27T05:39:53.699Z,973.33
2017-09-27T05:40:53.693Z,973.35
2017-09-27T05:41:53.788Z,973.3
2017-09-27T05:42:53.682Z,973.33
2017-09-27T05:43:53.677Z,973.33
2017-09-27T05:44:53.671Z,973.38
2017-09-27T05:45:53.667Z,973.37
2017-09-27T05:46:53.763Z,973.34
2017-09-27T05:47:53.655Z,973.35
2017-09-27T05:48:53.650Z,973.33
2017-09-27T05:49:53.645Z,973.32
2017-09-27T05:50:53.642Z,973.38
2017-09-27T05:51:53.633Z,973.39
2017-09-27T05:52:53.629Z,973.38
2017-09-27T05:53:53.623Z,973.39
2017-09-27T05:54:53.620Z,973.37
2017-09-27T05:55:53.613Z,973.38
2017-09-27T05:56:53.607Z,973.39
2017-09-27T05:57:53.602Z,973.39
2017-09-27T05:58:53.597Z,973.4
2017-09-27T05:59:53.590Z,973.38
2017-09-27T06:00:53.587Z,973.41
2017-09-27T06:01:53.580Z,973.42
2017-09-27T06:02:53.575Z,973.43
2017-09-27T06:03:53.570Z,973.45
2017-09-27T06:04:53.564Z,973.44
2017-09-27T06:05:53.561Z,973.43
2017-09-27T06:06:53.554Z,973.46
2017-09-27T06:07:53.549Z,973.47
2017-09-27T06:08:53.544Z,973.47
2017-09-27T06:09:53.538Z,973.52
2017-09-27T06:10:53.533Z,973.52
2017-09-27T06:11:53.530Z,973.53
2017-09-27T06:12:53.623Z,973.52
2017-09-27T06:13:53.517Z,973.54
2017-09-27T06:14:53.512Z,973.56
2017-09-27T06:15:53.508Z,973.57
2017-09-27T06:16:53.503Z,973.59
2017-09-27T06:17:53.496Z,973.58
2017-09-27T06:18:53.491Z,973.63
2017-09-27T06:19:53.487Z,973.61
2017-09-27T06:20:53.479Z,973.65
2017-09-27T06:21:53.475Z,973.66
2017-09-27T06:22:53.470Z,973.65
2017-09-27T06:23:53.564Z,973.71
2017-09-27T06:24:53.458Z,973.7
2017-09-27T06:25:53.454Z,973.71
2017-09-27T06:26:53.449Z,973.71
2017-09-27T06:27:53.444Z,973.73
2017-09-27T06:28:53.439Z,973.74
2017-09-27T06:29:53.434Z,973.76
2017-09-27T06:30:53.430Z,973.76
2017-09-27T06:31:53.423Z,973.79
2017-09-27T06:32:53.518Z,973.77
2017-09-27T06:33:53.422Z,973.75
2017-09-27T06:34:53.509Z,973.75
2017-09-27T06:35:53.403Z,973.78
2017-09-27T06:36:53.397Z,973.8
2017-09-27T06:37:53.391Z,973.79
2017-09-27T06:38:53.386Z,973.8
2017-09-27T06:39:53.381Z,973.78
2017-09-27T06:40:53.375Z,973.82
2017-09-27T06:41:53.371Z,973.81
2017-09-27T06:42:53.365Z,973.79
2017-09-27T06:43:53.360Z,973.88
2017-09-27T06:44:53.455Z,973.84
2017-09-27T06:45:53.350Z,973.86
2017-09-27T06:46:53.344Z,973.89
2017-09-27T06:47:53.339Z,973.92
2017-09-27T06:48:53.334Z,973.92
2017-09-27T06:49:53.326Z,973.92
2017-09-27T06:50:53.323Z,973.93
2017-09-27T06:51:53.417Z,973.95
2017-09-27T06:52:53.312Z,973.92
2017-09-27T06:53:53.307Z,973.97
2017-09-27T06:54:53.301Z,973.97
2017-09-27T06:55:53.297Z,973.96
2017-09-27T06:56:53.442Z,973.94
2017-09-27T06:57:53.286Z,973.94
2017-09-27T06:58:53.280Z,973.96
2017-09-27T06:59:53.275Z,974.01
2017-09-27T07:00:53.370Z,973.95
2017-09-27T07:01:53.279Z,973.96
2017-09-27T07:02:53.258Z,973.98
2017-09-27T07:03:53.255Z,974
2017-09-27T07:04:53.248Z,974.02
2017-09-27T07:05:53.243Z,974.05
2017-09-27T07:06:53.238Z,974.08
2017-09-27T07:07:53.233Z,974.01
2017-09-27T07:08:53.227Z,974.09
2017-09-27T07:09:53.222Z,974.1
2017-09-27T07:10:53.218Z,974.07
2017-09-27T07:11:53.311Z,974.13
2017-09-27T07:12:53.208Z,974.13
2017-09-27T07:13:53.205Z,974.13
2017-09-27T07:14:53.197Z,974.16
2017-09-27T07:15:53.196Z,974.16
2017-09-27T07:16:53.285Z,974.16
2017-09-27T07:17:53.179Z,974.19
2017-09-27T07:18:53.176Z,974.18
2017-09-27T07:19:53.169Z,974.16
2017-09-27T07:20:53.264Z,974.18
2017-09-27T07:21:53.160Z,974.16
2017-09-27T07:22:53.154Z,974.19
2017-09-27T07:23:53.148Z,974.16
2017-09-27T07:24:53.144Z,974.15
2017-09-27T07:25:53.137Z,974.18
2017-09-27T07:26:53.132Z,974.18
2017-09-27T07:27:53.231Z,974.15
2017-09-27T07:28:53.122Z,974.18
2017-09-27T07:29:53.123Z,974.2
2017-09-27T07:30:53.111Z,974.19
2017-09-27T07:31:53.107Z,974.24
2017-09-27T07:32:53.202Z,974.21
2017-09-27T07:33:53.095Z,974.3
2017-09-27T07:34:53.092Z,974.21
2017-09-27T07:35:53.085Z,974.22
2017-09-27T07:36:53.081Z,974.24
2017-09-27T07:37:53.075Z,974.17
2017-09-27T07:38:53.070Z,974.19
2017-09-27T07:39:53.065Z,974.21
2017-09-27T07:40:53.059Z,974.19
2017-09-27T07:41:53.054Z,974.25
2017-09-27T07:42:53.048Z,974.25
2017-09-27T07:43:53.045Z,974.21
2017-09-27T07:44:53.038Z,974.21
2017-09-27T07:45:53.032Z,974.24
2017-09-27T07:46:53.128Z,974.21
2017-09-27T07:47:53.022Z,974.26
2017-09-27T07:48:53.017Z,974.28
2017-09-27T07:49:53.014Z,974.24
2017-09-27T07:50:53.008Z,974.24
2017-09-27T07:51:59.270Z,974.23
2017-09-27T07:52:52.997Z,974.26
2017-09-27T07:53:52.991Z,974.23
2017-09-27T07:54:53.088Z,974.26
2017-09-27T07:55:52.981Z,974.26
2017-09-27T07:56:52.975Z,974.21
2017-09-27T07:57:53.071Z,974.27
2017-09-27T07:58:52.966Z,974.25
2017-09-27T07:59:52.960Z,974.24
2017-09-27T08:00:52.955Z,974.27
2017-09-27T08:01:52.950Z,974.24
2017-09-27T08:02:53.045Z,974.26
2017-09-27T08:03:52.940Z,974.27
2017-09-27T08:04:52.935Z,974.28
2017-09-27T08:05:52.930Z,974.28
2017-09-27T08:06:52.924Z,974.28
2017-09-27T08:07:53.020Z,974.3
2017-09-27T08:08:52.917Z,974.27
2017-09-27T08:09:52.910Z,974.26
2017-09-27T08:10:52.904Z,974.3
2017-09-27T08:11:52.899Z,974.3
2017-09-27T08:12:52.894Z,974.28
2017-09-27T08:13:52.888Z,974.32
2017-09-27T08:14:52.884Z,974.32
2017-09-27T08:15:52.877Z,974.26
2017-09-27T08:16:52.875Z,974.3
2017-09-27T08:17:52.868Z,974.34
2017-09-27T08:18:52.863Z,974.33
2017-09-27T08:19:52.857Z,974.35
2017-09-27T08:20:52.852Z,974.37
2017-09-27T08:21:52.847Z,974.39
2017-09-27T08:22:52.842Z,974.38
2017-09-27T08:23:52.837Z,974.36
2017-09-27T08:24:52.832Z,974.37
2017-09-27T08:25:52.826Z,974.35
2017-09-27T08:26:52.822Z,974.34
2017-09-27T08:27:52.816Z,974.35
2017-09-27T08:28:52.811Z,974.33
2017-09-27T08:29:52.806Z,974.35
2017-09-27T08:30:52.801Z,974.3
2017-09-27T08:31:52.796Z,974.31
2017-09-27T08:32:52.790Z,974.3
2017-09-27T08:33:52.785Z,974.33
2017-09-27T08:34:52.782Z,974.31
2017-09-27T08:35:52.774Z,974.32
2017-09-27T08:36:52.771Z,974.35
2017-09-27T08:37:52.765Z,974.35
2017-09-27T08:38:52.760Z,974.34
2017-09-27T08:39:52.754Z,974.36
2017-09-27T08:40:52.749Z,974.33
2017-09-27T08:41:52.746Z,974.34
2017-09-27T08:42:52.840Z,974.33
2017-09-27T08:43:52.734Z,974.33
2017-09-27T08:44:52.730Z,974.34
2017-09-27T08:45:52.725Z,974.3
2017-09-27T08:46:52.719Z,974.3
2017-09-27T08:47:52.814Z,974.31
2017-09-27T08:48:52.710Z,974.25
2017-09-27T08:49:52.705Z,974.23
2017-09-27T08:50:52.699Z,974.22
2017-09-27T08:51:52.793Z,974.19
2017-09-27T08:52:52.687Z,974.21
2017-09-27T08:53:52.684Z,974.24
2017-09-27T08:54:52.679Z,974.2
2017-09-27T08:55:52.773Z,974.19
2017-09-27T08:56:52.669Z,974.21
2017-09-27T08:57:52.662Z,974.25
2017-09-27T08:58:52.658Z,974.25
2017-09-27T08:59:52.654Z,974.27
2017-09-27T09:00:52.649Z,974.26
2017-09-27T09:01:52.644Z,974.23
2017-09-27T09:02:52.638Z,974.24
2017-09-27T09:03:52.632Z,974.21
2017-09-27T09:04:52.629Z,974.24
2017-09-27T09:05:52.623Z,974.26
2017-09-27T09:06:52.719Z,974.26
2017-09-27T09:07:52.614Z,974.27
2017-09-27T09:08:52.606Z,974.26
2017-09-27T09:09:52.603Z,974.29
2017-09-27T09:10:52.599Z,974.29
2017-09-27T09:11:52.693Z,974.25
2017-09-27T09:12:52.588Z,974.3
2017-09-27T09:13:52.583Z,974.28
2017-09-27T09:14:52.578Z,974.22
2017-09-27T09:15:52.573Z,974.24
2017-09-27T09:16:52.567Z,974.19
2017-09-27T09:17:52.562Z,974.19
2017-09-27T09:18:52.708Z,974.22
2017-09-27T09:19:52.552Z,974.17
2017-09-27T09:20:52.547Z,974.19
2017-09-27T09:21:52.544Z,974.17
2017-09-27T09:22:52.638Z,974.16
2017-09-27T09:23:52.532Z,974.15
2017-09-27T09:24:52.528Z,974.18
2017-09-27T09:25:52.523Z,974.17
2017-09-27T09:26:52.519Z,974.21
2017-09-27T09:27:52.514Z,974.23
2017-09-27T09:28:52.508Z,974.18
2017-09-27T09:29:52.503Z,974.2
2017-09-27T09:30:52.599Z,974.22
2017-09-27T09:31:52.494Z,974.24
2017-09-27T09:32:52.489Z,974.19
2017-09-27T09:33:52.484Z,974.21
2017-09-27T09:34:52.478Z,974.22
2017-09-27T09:35:52.474Z,974.2
2017-09-27T09:36:52.470Z,974.2
2017-09-27T09:37:52.464Z,974.23
2017-09-27T09:38:52.460Z,974.19
2017-09-27T09:39:52.556Z,974.19
2017-09-27T09:40:52.451Z,974.17
2017-09-27T09:41:52.446Z,974.17
2017-09-27T09:42:52.542Z,974.18
2017-09-27T09:43:52.436Z,974.15
2017-09-27T09:44:52.431Z,974.14
2017-09-27T09:45:52.526Z,974.15
2017-09-27T09:46:52.421Z,974.14
2017-09-27T09:47:52.417Z,974.11
2017-09-27T09:48:52.410Z,974.09
2017-09-27T09:49:52.406Z,974.08
2017-09-27T09:50:52.502Z,974.03
2017-09-27T09:51:52.398Z,974.04
2017-09-27T09:52:52.392Z,974.06
2017-09-27T09:53:52.387Z,974.06
2017-09-27T09:54:52.383Z,974.03
2017-09-27T09:55:52.378Z,974.05
2017-09-27T09:56:52.373Z,974.03
2017-09-27T09:57:52.368Z,974.07
2017-09-27T09:58:52.365Z,974.03
2017-09-27T09:59:52.358Z,974.02
2017-09-27T10:00:52.353Z,974.04
2017-09-27T10:01:52.349Z,974.02
2017-09-27T10:02:52.344Z,974.06
2017-09-27T10:03:52.338Z,974.02
2017-09-27T10:04:52.334Z,973.97
2017-09-27T10:05:52.330Z,974.01
2017-09-27T10:06:52.426Z,974
2017-09-27T10:07:52.319Z,973.97
2017-09-27T10:08:52.316Z,973.95
2017-09-27T10:09:52.310Z,973.94
2017-09-27T10:10:52.305Z,973.93
2017-09-27T10:11:52.300Z,973.92
2017-09-27T10:12:52.295Z,973.89
2017-09-27T10:13:52.292Z,973.87
2017-09-27T10:14:52.385Z,973.88
2017-09-27T10:15:52.281Z,973.86
2017-09-27T10:16:52.277Z,973.88
2017-09-27T10:17:52.273Z,973.87
2017-09-27T10:18:52.267Z,973.89
2017-09-27T10:19:52.263Z,973.87
2017-09-27T10:20:52.259Z,973.89
2017-09-27T10:21:52.253Z,973.88
2017-09-27T10:22:52.248Z,973.87
2017-09-27T10:23:52.243Z,973.85
2017-09-27T10:24:52.239Z,973.85
2017-09-27T10:25:52.234Z,973.86
2017-09-27T10:26:52.230Z,973.87
2017-09-27T10:27:52.224Z,973.84
2017-09-27T10:28:52.223Z,973.85
2017-09-27T10:29:52.216Z,973.85
2017-09-27T10:30:52.211Z,973.87
2017-09-27T10:31:52.207Z,973.83
2017-09-27T10:32:52.201Z,973.85
2017-09-27T10:33:52.197Z,973.86
2017-09-27T10:34:52.192Z,973.85
2017-09-27T10:35:52.188Z,973.82
2017-09-27T10:36:52.183Z,973.84
2017-09-27T10:37:52.178Z,973.78
2017-09-27T10:38:52.173Z,973.8
2017-09-27T10:39:52.269Z,973.8
2017-09-27T10:40:52.167Z,973.78
2017-09-27T10:41:52.158Z,973.78
2017-09-27T10:42:52.156Z,973.78
2017-09-27T10:43:52.150Z,973.73
2017-09-27T10:44:52.145Z,973.74
2017-09-27T10:45:52.141Z,973.78
2017-09-27T10:46:52.136Z,973.79
2017-09-27T10:47:52.130Z,973.77
2017-09-27T10:48:52.127Z,973.75
2017-09-27T10:49:52.124Z,973.77
2017-09-27T10:50:52.118Z,973.78
2017-09-27T10:51:52.112Z,973.72
2017-09-27T10:52:52.108Z,973.73
2017-09-27T10:53:52.104Z,973.69
2017-09-27T10:54:52.099Z,973.71
2017-09-27T10:55:52.094Z,973.68
2017-09-27T10:56:52.090Z,973.68
2017-09-27T10:57:52.086Z,973.73
2017-09-27T10:58:52.180Z,973.74
2017-09-27T10:59:52.079Z,973.73
2017-09-27T11:00:52.070Z,973.73
2017-09-27T11:01:52.090Z,973.73
2017-09-27T11:02:52.072Z,973.7
2017-09-27T11:03:52.056Z,973.74
2017-09-27T11:04:52.053Z,973.67
2017-09-27T11:05:52.052Z,973.74
2017-09-27T11:06:52.044Z,973.68
2017-09-27T11:07:52.039Z,973.7
2017-09-27T11:08:52.035Z,973.71
2017-09-27T11:09:52.180Z,973.73
2017-09-27T11:10:52.030Z,973.72
2017-09-27T11:11:52.020Z,973.74
2017-09-27T11:12:52.016Z,973.72
2017-09-27T11:13:52.110Z,973.73
2017-09-27T11:14:52.008Z,973.76
2017-09-27T11:15:52.004Z,973.7
2017-09-27T11:16:51.998Z,973.72
2017-09-27T11:17:51.994Z,973.7
2017-09-27T11:18:51.990Z,973.7
2017-09-27T11:19:51.985Z,973.69
2017-09-27T11:20:51.980Z,973.67
2017-09-27T11:21:51.975Z,973.71
2017-09-27T11:22:51.970Z,973.68
2017-09-27T11:23:51.965Z,973.69
2017-09-27T11:24:52.061Z,973.65
2017-09-27T11:25:51.957Z,973.62
2017-09-27T11:26:51.952Z,973.66
2017-09-27T11:27:51.947Z,973.61
2017-09-27T11:28:52.042Z,973.63
2017-09-27T11:29:51.938Z,973.59
2017-09-27T11:30:51.934Z,973.58
2017-09-27T11:31:51.928Z,973.56
2017-09-27T11:32:51.924Z,973.56
2017-09-27T11:33:52.020Z,973.54
2017-09-27T11:34:51.916Z,973.53
2017-09-27T11:35:51.912Z,973.55
2017-09-27T11:36:51.906Z,973.51
2017-09-27T11:37:51.902Z,973.48
2017-09-27T11:38:51.896Z,973.49
2017-09-27T11:39:51.893Z,973.46
2017-09-27T11:40:52.038Z,973.45
2017-09-27T11:41:51.884Z,973.43
2017-09-27T11:42:51.879Z,973.42
2017-09-27T11:43:51.875Z,973.38
2017-09-27T11:44:51.870Z,973.4
2017-09-27T11:45:51.865Z,973.41
2017-09-27T11:46:51.861Z,973.34
2017-09-27T11:47:51.856Z,973.33
2017-09-27T11:48:51.853Z,973.35
2017-09-27T11:49:51.846Z,973.33
2017-09-27T11:50:51.842Z,973.32
2017-09-27T11:51:51.938Z,973.35
2017-09-27T11:52:51.834Z,973.29
2017-09-27T11:53:51.829Z,973.28
2017-09-27T11:54:51.824Z,973.32
2017-09-27T11:55:51.820Z,973.28
2017-09-27T11:56:51.815Z,973.29
2017-09-27T11:57:51.814Z,973.27
2017-09-27T11:58:51.806Z,973.31
2017-09-27T11:59:51.801Z,973.29
2017-09-27T12:00:51.796Z,973.27
2017-09-27T12:01:51.792Z,973.25
2017-09-27T12:02:51.788Z,973.25
2017-09-27T12:03:51.783Z,973.25
2017-09-27T12:04:51.779Z,973.24
2017-09-27T12:05:51.774Z,973.23
2017-09-27T12:06:51.770Z,973.25
2017-09-27T12:07:51.764Z,973.27
2017-09-27T12:08:51.760Z,973.22
2017-09-27T12:09:51.757Z,973.23
2017-09-27T12:10:51.753Z,973.23
2017-09-27T12:11:51.746Z,973.25
2017-09-27T12:12:51.742Z,973.2
2017-09-27T12:13:51.737Z,973.2
2017-09-27T12:14:51.733Z,973.19
2017-09-27T12:15:51.728Z,973.21
2017-09-27T12:16:51.724Z,973.19
2017-09-27T12:17:51.720Z,973.2
2017-09-27T12:18:51.716Z,973.22
2017-09-27T12:19:51.710Z,973.15
2017-09-27T12:20:51.704Z,973.18
2017-09-27T12:21:51.703Z,973.18
2017-09-27T12:22:51.696Z,973.2
2017-09-27T12:23:51.697Z,973.18
2017-09-27T12:24:51.688Z,973.15
2017-09-27T12:25:51.684Z,973.2
2017-09-27T12:26:51.679Z,973.19
2017-09-27T12:27:51.675Z,973.19
2017-09-27T12:28:51.770Z,973.14
2017-09-27T12:29:51.665Z,973.17
2017-09-27T12:30:51.663Z,973.14
2017-09-27T12:31:51.756Z,973.14